Time;durP1;ratioP1;P1;durP2;ratioP2;P2;SDS_P1;SDS_P2;PMS_P1;PMS_P2;Temp;Humidity;BMP_temperature;BMP_pressure;BME280_temperature;BME280_humidity;BME280_pressure;Samples;Min_cycle;Max_cycle;Signal;HPM_P1;HPM_P2
2022/01/24 00:02:53;;;;;;;63.70;31.20;;;;;;;-1.17;79.45;100340.98;219699;1270;23521;-67
2022/01/24 00:07:56;;;;;;;70.10;32.10;;;;;;;-1.12;79.40;100336.38;220140;1271;22543;-68
2022/01/24 00:18:12;;;;;;;79.20;34.80;;;;;;;-1.10;79.17;100339.17;219747;1271;22541;-68
2022/01/24 00:28:36;;;;;;;83.30;37.10;;;;;;;-1.05;79.43;100338.26;220112;1271;22508;-68
2022/01/24 00:33:39;;;;;;;80.10;36.40;;;;;;;-1.04;79.64;100330.77;219861;1271;22477;-68
2022/01/24 00:38:41;;;;;;;72.50;34.70;;;;;;;-1.06;79.20;100334.86;220077;1271;22805;-68
2022/01/24 00:49:36;;;;;;;87.30;38.90;;;;;;;-1.14;79.12;100348.07;219989;1271;22601;-68
2022/01/24 00:54:48;;;;;;;82.50;37.90;;;;;;;-1.20;79.36;100355.04;220064;1271;22551;-68
2022/01/24 00:59:50;;;;;;;90.50;39.40;;;;;;;-1.28;79.14;100353.92;220108;1271;22968;-68
2022/01/24 01:05:11;;;;;;;97.00;43.00;;;;;;;-1.33;79.28;100344.34;219993;1271;22787;-67
2022/01/24 01:21:09;;;;;;;119.20;51.00;;;;;;;-1.49;79.41;100326.42;219966;1271;22720;-68
2022/01/24 01:26:22;;;;;;;134.90;60.60;;;;;;;-1.54;79.68;100322.29;219958;1271;24238;-67
2022/01/24 01:31:39;;;;;;;161.80;64.00;;;;;;;-1.59;79.62;100318.27;219767;1271;24253;-67
2022/01/24 01:37:12;;;;;;;140.40;59.00;;;;;;;-1.62;79.71;100322.46;220249;1272;24808;-68
2022/01/24 01:53:06;;;;;;;107.60;47.20;;;;;;;-1.67;79.86;100325.33;220011;1271;22538;-68
2022/01/24 01:58:15;;;;;;;96.70;43.00;;;;;;;-1.67;79.90;100319.88;220166;1271;22525;-67
2022/01/24 02:03:18;;;;;;;71.00;35.20;;;;;;;-1.67;79.69;100316.37;220047;1271;22605;-67
2022/01/24 02:08:30;;;;;;;68.60;34.90;;;;;;;-1.69;79.47;100320.45;220212;1271;22622;-67
2022/01/24 02:13:35;;;;;;;71.40;35.70;;;;;;;-1.70;79.50;100325.98;220191;1271;22556;-68
2022/01/24 02:23:48;;;;;;;69.90;33.60;;;;;;;-1.73;79.22;100336.45;219908;1271;22698;-66
2022/01/24 02:33:58;;;;;;;88.70;40.90;;;;;;;-1.80;78.98;100341.14;220012;1271;22940;-66
2022/01/24 02:39:35;;;;;;;99.50;45.00;;;;;;;-1.87;79.23;100340.51;220076;1271;22548;-67
2022/01/24 02:49:52;;;;;;;94.90;43.10;;;;;;;-2.02;79.15;100354.02;219748;1271;22560;-67
2022/01/24 02:55:04;;;;;;;86.80;42.00;;;;;;;-2.05;78.89;100357.15;219917;1270;22691;-68
2022/01/24 03:00:14;;;;;;;92.60;40.50;;;;;;;-2.11;78.90;100359.16;219692;1271;25711;-67
2022/01/24 03:05:25;;;;;;;86.70;41.00;;;;;;;-2.16;78.80;100364.82;219646;1271;22575;-66
2022/01/24 03:10:48;;;;;;;86.70;41.10;;;;;;;-2.24;78.76;100371.91;219668;1271;22537;-68
2022/01/24 03:16:02;;;;;;;75.50;35.20;;;;;;;-2.28;78.69;100370.92;219671;1271;24281;-66
2022/01/24 03:21:05;;;;;;;71.70;36.50;;;;;;;-2.29;78.75;100372.15;219734;1271;22727;-66
2022/01/24 03:26:16;;;;;;;77.10;34.80;;;;;;;-2.33;78.63;100371.88;219707;1271;22627;-68
2022/01/24 03:31:19;;;;;;;76.90;34.70;;;;;;;-2.41;78.53;100376.38;219745;1271;22586;-67
2022/01/24 03:36:22;;;;;;;72.10;33.00;;;;;;;-2.46;78.43;100373.39;219894;1271;22544;-68
2022/01/24 03:41:24;;;;;;;55.00;24.80;;;;;;;-2.52;78.64;100373.48;219771;1271;22550;-67
2022/01/24 03:46:46;;;;;;;50.80;24.40;;;;;;;-2.59;78.20;100376.51;219733;1271;24771;-66
2022/01/24 03:51:51;;;;;;;47.70;24.40;;;;;;;-2.72;78.05;100377.37;219800;1270;22529;-68
2022/01/24 03:56:53;;;;;;;56.40;26.00;;;;;;;-2.80;78.11;100369.98;219903;1271;22470;-68
2022/01/24 04:02:00;;;;;;;58.30;27.40;;;;;;;-2.90;78.05;100372.58;219781;1271;22796;-67
2022/01/24 04:07:04;;;;;;;69.80;31.80;;;;;;;-3.02;77.91;100377.35;219845;1271;22548;-69
2022/01/24 04:12:11;;;;;;;60.70;30.30;;;;;;;-3.15;77.95;100375.41;220005;1271;24270;-67
2022/01/24 04:22:27;;;;;;;68.30;32.90;;;;;;;-3.22;78.17;100378.03;219856;1271;24245;-67
2022/01/24 04:27:30;;;;;;;74.30;35.70;;;;;;;-3.23;78.31;100384.45;219965;1271;24332;-68
2022/01/24 04:32:32;;;;;;;69.50;32.70;;;;;;;-3.20;78.54;100389.74;219858;1269;22860;-67
2022/01/24 04:37:35;;;;;;;64.70;30.40;;;;;;;-3.16;78.53;100396.61;219876;1271;22662;-67
2022/01/24 04:42:47;;;;;;;70.00;34.50;;;;;;;-3.13;78.29;100400.36;219858;1271;25749;-68
2022/01/24 04:53:32;;;;;;;51.60;25.10;;;;;;;-3.17;78.02;100396.59;219769;1271;22608;-67
2022/01/24 04:58:32;;;;;;;47.90;24.70;;;;;;;-3.21;78.02;100395.09;219595;1270;22689;-68
2022/01/24 05:03:34;;;;;;;47.80;24.00;;;;;;;-3.26;77.82;100404.11;219812;1271;24253;-68
2022/01/24 05:08:47;;;;;;;49.90;24.30;;;;;;;-3.34;77.92;100401.05;219598;1271;24052;-68
2022/01/24 05:24:54;;;;;;;48.10;24.30;;;;;;;-3.66;77.32;100405.00;219606;1271;25530;-67
2022/01/24 05:29:56;;;;;;;56.00;26.00;;;;;;;-3.78;77.35;100409.60;220113;1270;22562;-66
2022/01/24 05:34:58;;;;;;;57.80;27.20;;;;;;;-3.92;77.24;100410.38;220072;1271;24279;-65
2022/01/24 05:40:01;;;;;;;58.20;29.40;;;;;;;-4.13;76.91;100405.02;219958;1271;24254;-68
2022/01/24 05:45:06;;;;;;;59.20;29.00;;;;;;;-4.43;76.61;100406.88;219951;1271;24278;-69
2022/01/24 05:50:12;;;;;;;67.00;32.30;;;;;;;-4.70;76.86;100414.34;220294;1271;25509;-68
2022/01/24 05:55:16;;;;;;;57.10;28.70;;;;;;;-4.93;76.82;100413.08;220288;1271;22771;-68
2022/01/24 06:00:33;;;;;;;66.50;29.70;;;;;;;-5.18;76.98;100417.40;219888;1270;24344;-67
2022/01/24 06:05:41;;;;;;;63.80;31.00;;;;;;;-5.37;77.26;100417.73;219710;1271;22652;-67
2022/01/24 06:10:46;;;;;;;70.40;32.60;;;;;;;-5.50;77.54;100427.00;219881;1271;22611;-68
2022/01/24 06:15:48;;;;;;;68.50;31.70;;;;;;;-5.58;77.62;100429.48;219907;1271;22777;-68
2022/01/24 06:20:54;;;;;;;66.30;31.10;;;;;;;-5.64;77.64;100431.05;220073;1271;22696;-67
2022/01/24 06:25:59;;;;;;;64.60;29.80;;;;;;;-5.70;77.74;100441.30;220142;1269;22959;-68
2022/01/24 06:31:05;;;;;;;64.00;30.60;;;;;;;-5.69;77.94;100443.43;219736;1271;22865;-67
2022/01/24 06:36:08;;;;;;;66.30;31.70;;;;;;;-5.67;77.95;100450.10;220275;1270;22753;-68
2022/01/24 06:41:10;;;;;;;68.90;30.80;;;;;;;-5.60;78.09;100456.27;219413;1271;25681;-68
2022/01/24 06:46:15;;;;;;;60.10;28.70;;;;;;;-5.53;78.01;100465.20;219877;1271;22839;-68
2022/01/24 06:51:19;;;;;;;62.00;29.40;;;;;;;-5.43;78.28;100464.43;219528;1271;26097;-68
2022/01/24 06:56:21;;;;;;;57.10;27.80;;;;;;;-5.25;78.52;100472.55;220062;1268;22660;-67
2022/01/24 07:01:32;;;;;;;66.60;31.30;;;;;;;-5.09;78.46;100469.50;219229;1268;22797;-69
2022/01/24 07:06:45;;;;;;;59.10;28.70;;;;;;;-4.90;78.33;100480.38;219396;1268;25713;-68
2022/01/24 07:12:08;;;;;;;54.40;28.50;;;;;;;-4.73;78.12;100479.00;218962;1268;22670;-67
2022/01/24 07:17:44;;;;;;;57.80;28.70;;;;;;;-4.49;78.22;100485.63;219345;1271;24242;-67
2022/01/24 07:22:47;;;;;;;60.40;28.10;;;;;;;-4.23;78.06;100490.91;219148;1271;23912;-68
2022/01/24 07:27:55;;;;;;;58.00;28.40;;;;;;;-3.89;78.38;100492.54;219086;1271;25604;-68
2022/01/24 07:32:57;;;;;;;59.50;29.10;;;;;;;-3.51;78.21;100496.84;219416;1268;25760;-68
2022/01/24 07:38:05;;;;;;;65.20;32.10;;;;;;;-3.17;77.83;100497.00;219187;1271;25584;-68
2022/01/24 07:43:12;;;;;;;71.40;34.00;;;;;;;-2.80;77.51;100492.58;219752;1268;25510;-67
2022/01/24 07:48:17;;;;;;;71.30;34.90;;;;;;;-2.38;77.45;100491.58;219476;1268;24807;-68
2022/01/24 07:53:23;;;;;;;73.40;36.40;;;;;;;-1.76;78.04;100487.44;219352;1271;22544;-68
2022/01/24 07:58:46;;;;;;;80.60;38.80;;;;;;;-1.25;76.86;100489.36;219398;1271;28137;-67
2022/01/24 08:03:51;;;;;;;80.80;39.10;;;;;;;-0.97;75.90;100489.05;219320;1268;25108;-67
2022/01/24 08:09:00;;;;;;;82.90;41.20;;;;;;;-0.73;75.54;100494.47;219105;1270;24675;-68
2022/01/24 08:14:08;;;;;;;;;;;;;;;-0.53;75.02;100499.02;219471;1270;24205;-67
2022/01/24 08:19:11;;;;;;;72.60;35.20;;;;;;;-0.39;74.99;100499.48;217043;1271;3199686;-68
2022/01/24 08:24:16;;;;;;;70.60;35.10;;;;;;;-0.39;73.97;100496.69;219342;1271;22762;-67
2022/01/24 08:29:19;;;;;;;69.40;33.80;;;;;;;-0.52;73.33;100498.48;219380;1271;22562;-66
2022/01/24 08:34:26;;;;;;;63.40;32.80;;;;;;;-0.57;73.33;100503.33;219601;1268;22728;-68
2022/01/24 08:39:58;;;;;;;60.90;30.80;;;;;;;-0.47;73.42;100505.48;219395;1269;22589;-67
2022/01/24 08:50:53;;;;;;;45.20;23.90;;;;;;;-0.31;73.06;100512.40;219957;1271;22906;-68
2022/01/24 08:56:15;;;;;;;;;;;;;;;;;;;;;
2022/01/24 09:01:22;;;;;;;34.50;16.50;;;;;;;0.08;72.95;100514.15;219587;1268;22559;-68
2022/01/24 09:06:25;;;;;;;30.60;15.20;;;;;;;0.25;72.55;100521.13;219515;1271;25557;-68
2022/01/24 09:11:50;;;;;;;32.40;16.20;;;;;;;0.45;72.32;100516.41;219526;1268;26389;-67
2022/01/24 09:17:04;;;;;;;29.70;16.10;;;;;;;0.71;71.65;100511.65;219329;1271;22579;-69
2022/01/24 09:22:07;;;;;;;28.40;15.00;;;;;;;0.98;71.85;100503.38;218910;1269;25235;-67
2022/01/24 09:27:09;;;;;;;45.20;21.70;;;;;;;1.22;70.92;100503.72;218385;1271;22650;-68
2022/01/24 09:32:30;;;;;;;51.40;26.60;;;;;;;1.30;70.01;100508.58;218356;1270;22588;-68
2022/01/24 09:37:34;;;;;;;53.10;28.00;;;;;;;1.21;68.79;100517.68;218607;1268;22762;-68
2022/01/24 09:42:46;;;;;;;55.50;27.20;;;;;;;1.10;68.28;100515.14;218532;1270;22535;-68
2022/01/24 09:48:19;;;;;;;55.50;25.30;;;;;;;0.94;68.11;100512.64;226649;1268;22546;-66
2022/01/24 09:53:43;;;;;;;58.40;27.00;;;;;;;0.76;67.98;100502.73;225316;1271;22481;-67
2022/01/24 09:58:45;;;;;;;46.20;24.30;;;;;;;0.71;67.84;100502.14;226064;1274;22392;-67
2022/01/24 10:04:12;;;;;;;47.70;23.20;;;;;;;0.59;67.76;100493.05;225982;1274;22602;-67
2022/01/24 10:09:14;;;;;;;46.30;24.50;;;;;;;0.51;67.47;100486.52;226128;1274;22590;-68
2022/01/24 10:19:55;;;;;;;41.00;20.60;;;;;;;0.47;67.91;100467.04;219912;1274;24275;-68
2022/01/24 10:24:58;;;;;;;43.70;21.50;;;;;;;0.51;67.91;100460.88;219051;1274;22540;-68
2022/01/24 10:30:03;;;;;;;33.70;18.20;;;;;;;0.75;68.93;100464.90;218616;1274;24314;-67
2022/01/24 10:35:42;;;;;;;35.30;19.10;;;;;;;1.05;68.05;100463.80;218534;1274;22662;-67
2022/01/24 10:46:08;;;;;;;44.30;22.60;;;;;;;0.86;66.23;100470.95;218583;1274;22749;-68
2022/01/24 10:51:20;;;;;;;49.50;25.20;;;;;;;0.67;66.21;100461.79;218642;1274;24248;-67
2022/01/24 10:56:43;;;;;;;53.30;27.60;;;;;;;0.57;66.75;100447.09;218630;1274;22656;-68
2022/01/24 11:01:56;;;;;;;;;;;;;;;0.72;67.38;100435.45;218679;1274;24314;-68
2022/01/24 11:07:03;;;;;;;54.30;28.80;;;;;;;0.77;67.02;100431.73;218760;1274;22542;-69
2022/01/24 11:12:11;;;;;;;48.40;25.20;;;;;;;0.79;66.71;100431.33;218982;1274;24354;-67
2022/01/24 11:17:20;;;;;;;46.20;24.50;;;;;;;0.99;67.56;100427.75;218902;1274;24325;-67
2022/01/24 11:22:27;;;;;;;42.50;22.00;;;;;;;1.14;66.77;100423.23;218757;1274;24715;-68
2022/01/24 11:27:32;;;;;;;51.90;24.90;;;;;;;1.28;66.49;100411.83;218798;1274;24249;-68
2022/01/24 11:33:11;;;;;;;52.80;27.10;;;;;;;1.31;66.24;100408.02;218554;1274;24186;-67
2022/01/24 11:38:35;;;;;;;54.70;28.40;;;;;;;1.38;66.13;100414.02;219131;1274;22600;-68
2022/01/24 11:43:49;;;;;;;48.20;24.90;;;;;;;1.43;65.93;100409.07;218797;1276;22935;-68
2022/01/24 11:49:06;;;;;;;43.60;22.40;;;;;;;1.50;65.91;100416.48;218734;1275;24000;-69
2022/01/24 11:54:30;;;;;;;41.90;22.10;;;;;;;1.62;66.05;100401.52;218700;1277;22647;-67
2022/01/24 11:59:33;;;;;;;48.10;23.10;;;;;;;1.78;66.38;100402.31;218725;1274;25315;-65
2022/01/24 12:05:06;;;;;;;44.60;22.70;;;;;;;1.97;66.54;100398.89;218555;1274;22787;-67
2022/01/24 12:11:19;;;;;;;43.60;22.20;;;;;;;1.99;64.76;100396.87;218573;1274;22763;-67
2022/01/24 12:16:35;;;;;;;32.90;17.90;;;;;;;1.83;64.97;100398.70;218675;1274;22636;-66
2022/01/24 12:21:41;;;;;;;28.00;14.90;;;;;;;1.89;65.23;100395.45;218684;1274;23632;-67
2022/01/24 12:26:49;;;;;;;28.50;16.40;;;;;;;2.05;65.53;100388.58;218299;1274;22614;-66
2022/01/24 12:33:05;;;;;;;29.90;14.40;;;;;;;2.30;65.38;100383.57;218603;1274;22582;-66
2022/01/24 12:38:15;;;;;;;29.10;16.20;;;;;;;2.45;65.00;100386.39;218636;1274;22803;-66
2022/01/24 12:43:50;;;;;;;36.60;17.10;;;;;;;2.52;64.87;100385.29;218692;1274;26956;-67
2022/01/24 12:48:56;;;;;;;32.90;17.30;;;;;;;2.47;64.46;100386.67;218723;1274;25509;-67
2022/01/24 12:54:04;;;;;;;35.10;18.40;;;;;;;2.40;64.17;100376.61;218842;1274;23871;-67
2022/01/24 12:59:10;;;;;;;40.00;20.50;;;;;;;2.01;62.78;100371.77;218952;1274;25273;-67
2022/01/24 13:04:12;;;;;;;38.00;20.20;;;;;;;1.71;63.52;100376.97;218861;1274;22608;-66
2022/01/24 13:09:28;;;;;;;54.40;29.20;;;;;;;1.63;63.67;100375.56;218732;1274;22568;-67
2022/01/24 13:25:36;;;;;;;48.20;27.10;;;;;;;1.17;64.08;100367.69;218760;1274;22556;-68
2022/01/24 13:30:49;;;;;;;41.50;21.90;;;;;;;1.15;64.36;100364.88;218880;1274;25442;-68
2022/01/24 13:36:00;;;;;;;48.10;23.40;;;;;;;1.14;64.10;100353.94;218611;1274;24243;-67
2022/01/24 13:41:14;;;;;;;41.70;22.00;;;;;;;1.03;64.21;100353.13;218704;1274;23860;-66
2022/01/24 13:46:22;;;;;;;40.60;20.70;;;;;;;1.00;64.67;100348.03;218611;1274;23713;-68
2022/01/24 13:51:38;;;;;;;40.60;21.20;;;;;;;1.12;65.86;100343.84;219018;1274;22571;-67
2022/01/24 13:57:18;;;;;;;;;;;;;;;;;;;;;
2022/01/24 14:02:33;;;;;;;46.50;24.30;;;;;;;1.12;64.37;100345.52;218718;1274;25370;-67
2022/01/24 14:07:41;;;;;;;50.30;24.50;;;;;;;0.93;64.91;100351.73;218561;1274;22598;-67
2022/01/24 14:12:54;;;;;;;47.00;24.20;;;;;;;0.90;65.92;100353.96;219031;1274;24233;-67
2022/01/24 14:23:21;;;;;;;44.60;22.70;;;;;;;0.73;66.14;100354.05;218681;1274;22586;-68
2022/01/24 14:28:28;;;;;;;44.50;22.70;;;;;;;0.65;66.07;100355.65;219937;1274;22552;-67
2022/01/24 14:33:33;;;;;;;51.70;23.50;;;;;;;0.58;66.68;100354.55;218538;1274;22566;-67
2022/01/24 14:38:36;;;;;;;43.40;22.10;;;;;;;0.55;67.30;100354.20;218989;1274;25490;-68
2022/01/24 14:49:21;;;;;;;47.40;23.00;;;;;;;0.38;66.68;100352.48;218815;1274;24237;-67
2022/01/24 14:54:26;;;;;;;43.90;21.40;;;;;;;0.12;66.35;100353.62;218709;1274;24291;-68
2022/01/24 14:59:31;;;;;;;50.00;23.50;;;;;;;-0.11;66.42;100343.30;218384;1274;22570;-69
2022/01/24 15:04:33;;;;;;;43.30;21.50;;;;;;;-0.22;67.29;100326.32;218856;1274;22554;-68
2022/01/24 15:09:40;;;;;;;44.20;20.60;;;;;;;-0.29;66.92;100342.38;218720;1274;22781;-69
2022/01/24 15:14:47;;;;;;;38.40;19.30;;;;;;;-0.44;67.00;100335.55;218840;1275;22668;-67
2022/01/24 15:25:20;;;;;;;38.30;18.40;;;;;;;-0.52;67.93;100338.50;218787;1274;22578;-68
2022/01/24 15:30:28;;;;;;;31.50;16.00;;;;;;;-0.51;68.13;100337.25;218827;1274;22612;-68
2022/01/24 15:35:33;;;;;;;33.20;15.20;;;;;;;-0.53;68.03;100345.78;219096;1275;23104;-68
2022/01/24 15:40:36;;;;;;;34.80;16.90;;;;;;;-0.54;67.84;100351.75;218830;1274;22698;-68
2022/01/24 15:50:41;;;;;;;38.40;18.80;;;;;;;-0.54;68.54;100347.60;218883;1276;22680;-67
2022/01/24 16:01:13;;;;;;;46.40;23.60;;;;;;;-0.62;68.18;100353.95;218860;1275;22887;-68
2022/01/24 16:06:15;;;;;;;47.40;22.90;;;;;;;-0.72;68.31;100352.08;219125;1274;24128;-68
2022/01/24 16:11:23;;;;;;;49.00;21.90;;;;;;;-0.82;68.30;100350.20;219299;1275;22578;-68
2022/01/24 16:16:48;;;;;;;49.40;23.50;;;;;;;-0.93;68.11;100348.06;218927;1275;22718;-68
2022/01/24 16:22:16;;;;;;;47.60;23.00;;;;;;;-1.02;68.19;100345.27;219241;1275;23790;-67
2022/01/24 16:27:34;;;;;;;56.00;25.80;;;;;;;-1.07;68.58;100348.77;219057;1275;22747;-68
2022/01/24 16:32:36;;;;;;;61.90;28.00;;;;;;;-1.07;69.08;100347.05;219124;1277;25264;-67
2022/01/24 16:37:39;;;;;;;64.90;29.50;;;;;;;-1.09;68.88;100343.79;219041;1277;22652;-68
2022/01/24 16:48:33;;;;;;;66.60;29.60;;;;;;;-1.06;69.24;100340.70;218867;1277;24662;-69
2022/01/24 16:53:37;;;;;;;68.70;28.20;;;;;;;-1.07;69.19;100333.73;218685;1277;22759;-68
2022/01/24 16:58:40;;;;;;;66.70;28.30;;;;;;;-1.09;69.52;100347.24;219117;1277;22555;-68
2022/01/24 17:03:42;;;;;;;58.20;26.50;;;;;;;-1.08;69.34;100342.28;219071;1277;22947;-68
2022/01/24 17:08:47;;;;;;;61.40;27.90;;;;;;;-1.07;69.79;100343.26;218666;1277;25270;-68
2022/01/24 17:13:49;;;;;;;64.20;28.00;;;;;;;-1.02;69.86;100343.80;218889;1274;23853;-68
2022/01/24 17:19:15;;;;;;;67.10;30.50;;;;;;;-0.99;69.83;100341.92;219299;1275;22540;-69
2022/01/24 17:24:17;;;;;;;64.70;30.80;;;;;;;-0.93;70.19;100341.99;219146;1275;23864;-68
2022/01/24 17:29:31;;;;;;;75.00;31.10;;;;;;;-0.88;70.17;100340.73;219295;1275;22665;-69
2022/01/24 17:34:33;;;;;;;76.50;34.50;;;;;;;-0.86;70.03;100345.19;218907;1275;23850;-68
2022/01/24 17:39:39;;;;;;;79.70;34.80;;;;;;;-0.86;69.62;100346.13;219178;1274;22718;-68
2022/01/24 17:44:45;;;;;;;74.50;34.30;;;;;;;-0.89;70.10;100343.93;219063;1274;22625;-68
2022/01/24 17:49:48;;;;;;;75.40;36.40;;;;;;;-0.90;69.63;100343.42;219132;1274;22639;-69
2022/01/24 17:54:51;;;;;;;78.00;35.00;;;;;;;-0.95;69.92;100347.33;219301;1274;25612;-67
2022/01/24 17:59:56;;;;;;;83.10;36.90;;;;;;;-1.03;69.68;100341.36;219301;1274;25503;-67
2022/01/24 18:04:58;;;;;;;80.80;37.20;;;;;;;-1.13;69.67;100339.52;219066;1274;22847;-68
2022/01/24 18:10:05;;;;;;;91.70;41.30;;;;;;;-1.17;69.84;100340.81;219223;1274;22635;-67
2022/01/24 18:15:08;;;;;;;84.60;39.00;;;;;;;-1.18;70.35;100336.91;219098;1277;26277;-67
2022/01/24 18:20:16;;;;;;;101.60;42.70;;;;;;;-1.18;70.36;100339.27;219121;1275;25409;-68
2022/01/24 18:25:19;;;;;;;92.00;40.90;;;;;;;-1.23;70.30;100338.35;219084;1274;23213;-68
2022/01/24 18:30:23;;;;;;;97.30;42.60;;;;;;;-1.28;70.36;100329.43;219315;1274;22596;-68
2022/01/24 18:35:25;;;;;;;98.00;46.40;;;;;;;-1.30;70.48;100332.48;218993;1277;22639;-68
2022/01/24 18:40:43;;;;;;;106.00;47.80;;;;;;;-1.31;70.86;100329.77;219063;1274;24246;-68
2022/01/24 18:46:07;;;;;;;117.10;49.00;;;;;;;-1.33;71.01;100326.27;218901;1275;22759;-68
2022/01/24 18:51:10;;;;;;;117.30;48.20;;;;;;;-1.32;71.33;100331.06;219015;1277;22617;-68
2022/01/24 18:56:12;;;;;;;114.20;50.10;;;;;;;-1.30;71.35;100330.13;218992;1274;24247;-67
2022/01/24 19:01:14;;;;;;;116.50;49.20;;;;;;;-1.28;71.49;100327.50;219019;1275;24338;-68
2022/01/24 19:06:18;;;;;;;122.70;51.60;;;;;;;-1.26;71.59;100325.55;219020;1274;24842;-68
2022/01/24 19:11:20;;;;;;;115.10;50.40;;;;;;;-1.25;71.52;100324.91;219112;1274;25127;-68
2022/01/24 19:16:37;;;;;;;122.30;54.80;;;;;;;-1.23;71.73;100322.34;219124;1274;24285;-68
2022/01/24 19:27:11;;;;;;;126.20;54.40;;;;;;;-1.21;71.88;100320.88;218967;1275;25409;-68
2022/01/24 19:32:34;;;;;;;137.20;57.80;;;;;;;-1.19;72.08;100319.88;218720;1276;22961;-68
2022/01/24 19:37:39;;;;;;;130.30;57.70;;;;;;;-1.18;72.39;100317.27;219211;1275;22935;-67
2022/01/24 19:42:51;;;;;;;;;;;;;;;;;;;;;
2022/01/24 19:48:04;;;;;;;132.40;56.60;;;;;;;-1.09;72.64;100319.31;218901;1277;24342;-68
2022/01/24 19:53:09;;;;;;;126.80;53.80;;;;;;;-1.02;72.78;100315.24;219088;1274;24365;-68
2022/01/24 20:03:30;;;;;;;110.50;49.10;;;;;;;-0.97;72.59;100309.58;219153;1277;24566;-67
2022/01/24 20:08:52;;;;;;;98.20;45.90;;;;;;;-0.91;72.95;100306.53;219155;1275;24305;-67
2022/01/24 20:13:56;;;;;;;105.80;46.30;;;;;;;-0.84;73.13;100309.00;219112;1274;22545;-67
2022/01/24 20:19:01;;;;;;;107.60;47.70;;;;;;;-0.78;73.00;100313.94;218786;1275;573937;-68
2022/01/24 20:24:21;;;;;;;104.10;45.60;;;;;;;-0.78;72.96;100313.64;219139;1274;22553;-68
2022/01/24 20:29:35;;;;;;;103.90;45.00;;;;;;;-0.80;73.22;100319.10;218995;1274;23108;-68
2022/01/24 20:34:47;;;;;;;103.20;42.30;;;;;;;-0.80;73.29;100312.27;219091;1275;22720;-68
2022/01/24 20:39:56;;;;;;;90.40;42.10;;;;;;;-0.78;73.54;100309.95;219108;1275;22569;-68
2022/01/24 20:45:07;;;;;;;82.90;39.40;;;;;;;-0.75;73.85;100310.09;219074;1275;22567;-68
2022/01/24 20:50:14;;;;;;;;;;;;;;;-0.70;74.18;100311.17;218964;1275;25356;-68
2022/01/24 20:55:16;;;;;;;73.20;32.60;;;;;;;-0.68;74.68;100311.22;218933;1277;23068;-68
2022/01/24 21:00:32;;;;;;;68.80;32.20;;;;;;;-0.66;74.89;100310.51;218788;1276;22800;-68
2022/01/24 21:05:55;;;;;;;69.10;31.70;;;;;;;-0.64;75.41;100304.84;218902;1277;22626;-68
2022/01/24 21:11:02;;;;;;;64.60;30.50;;;;;;;-0.65;75.74;100299.12;219016;1275;23687;-67
2022/01/24 21:17:13;;;;;;;;;;;;;;;;;;;;;
2022/01/24 21:22:46;;;;;;;60.40;26.90;;;;;;;-0.63;76.39;100287.92;218898;1275;24357;-67
2022/01/24 21:27:51;;;;;;;64.20;28.60;;;;;;;-0.65;76.75;100282.16;218778;1274;24260;-68
2022/01/24 21:32:59;;;;;;;59.80;28.60;;;;;;;-0.65;76.76;100279.36;219098;1274;25501;-69
2022/01/24 21:38:09;;;;;;;59.30;26.10;;;;;;;-0.64;77.62;100276.98;218990;1277;24748;-68
2022/01/24 21:43:47;;;;;;;55.50;25.00;;;;;;;-0.65;77.50;100271.65;218934;1274;22890;-67
2022/01/24 21:49:15;;;;;;;60.50;26.00;;;;;;;-0.66;77.84;100274.06;219142;1274;24244;-68
2022/01/24 21:54:25;;;;;;;53.50;26.30;;;;;;;-0.64;77.86;100274.19;219034;1274;25270;-68
2022/01/24 21:59:30;;;;;;;52.20;24.10;;;;;;;-0.63;78.15;100268.25;218825;1277;24992;-68
2022/01/24 22:04:50;;;;;;;;;;;;;;;;;;;;;
2022/01/24 22:09:53;;;;;;;55.60;24.30;;;;;;;-0.60;78.39;100254.86;219337;1274;23116;-67
2022/01/24 22:14:55;;;;;;;57.10;26.20;;;;;;;-0.61;78.78;100256.09;219090;1274;22631;-67
2022/01/24 22:19:58;;;;;;;51.20;24.80;;;;;;;-0.61;78.89;100248.29;219051;1274;22654;-67
2022/01/24 22:25:26;;;;;;;56.50;25.20;;;;;;;-0.61;78.94;100246.79;218954;1274;22649;-66
2022/01/24 22:30:36;;;;;;;51.00;23.00;;;;;;;-0.60;79.15;100247.23;218969;1274;22570;-68
2022/01/24 22:35:48;;;;;;;51.80;23.60;;;;;;;-0.61;79.37;100244.60;218917;1274;22614;-68
2022/01/24 22:46:08;;;;;;;48.00;23.10;;;;;;;-0.63;79.83;100242.10;219000;1274;22544;-69
2022/01/24 22:51:12;;;;;;;52.70;24.10;;;;;;;-0.63;80.05;100235.58;219338;1274;22565;-67
2022/01/24 22:56:21;;;;;;;45.00;22.40;;;;;;;-0.63;79.81;100235.21;218905;1277;26154;-69
2022/01/24 23:01:37;;;;;;;47.90;24.30;;;;;;;-0.61;80.05;100229.41;219013;1274;22771;-67
2022/01/24 23:06:47;;;;;;;52.80;22.80;;;;;;;-0.60;80.09;100226.83;219041;1274;24251;-68
2022/01/24 23:11:53;;;;;;;44.40;21.60;;;;;;;-0.60;80.36;100224.52;219091;1274;22734;-67
2022/01/24 23:22:22;;;;;;;49.60;22.40;;;;;;;-0.62;80.28;100209.96;218962;1274;22679;-68
2022/01/24 23:27:29;;;;;;;51.10;23.20;;;;;;;-0.62;80.43;100202.95;218973;1274;22634;-67
2022/01/24 23:32:53;;;;;;;50.70;23.50;;;;;;;-0.63;80.39;100196.39;219021;1274;22854;-68
2022/01/24 23:44:01;;;;;;;52.90;22.50;;;;;;;-0.59;80.54;100188.63;218864;1277;22600;-68
2022/01/24 23:49:07;;;;;;;49.30;23.40;;;;;;;-0.56;80.21;100186.64;219225;1274;22550;-68
2022/01/24 23:54:13;;;;;;;51.50;24.00;;;;;;;-0.55;80.32;100186.05;219320;1274;22765;-67
